createdAt,value
2019-02-02T00:01:26.545Z,94.62
2019-02-02T00:06:31.070Z,95.25
2019-02-02T00:11:35.505Z,96.66
2019-02-02T00:16:39.907Z,97.20
2019-02-02T00:21:44.301Z,96.76
2019-02-02T00:26:48.642Z,98.12
2019-02-02T00:31:53.016Z,97.00
2019-02-02T00:36:59.319Z,97.86
2019-02-02T00:42:03.719Z,98.07
2019-02-02T00:47:08.102Z,97.57
2019-02-02T00:52:12.457Z,96.98
2019-02-02T00:57:16.837Z,98.11
2019-02-02T01:02:21.273Z,97.56
2019-02-02T01:07:25.622Z,97.06
2019-02-02T01:12:30.052Z,97.11
2019-02-02T01:17:34.399Z,97.65
2019-02-02T01:22:38.836Z,97.78
2019-02-02T01:27:43.224Z,97.19
2019-02-02T01:32:47.582Z,97.18
2019-02-02T01:37:53.029Z,97.46
2019-02-02T01:42:57.376Z,97.32
2019-02-02T01:48:01.786Z,98.18
2019-02-02T01:53:06.227Z,97.54
2019-02-02T01:58:16.842Z,97.08
2019-02-02T02:03:16.674Z,96.63
2019-02-02T02:08:21.029Z,97.18
2019-02-02T02:13:25.390Z,98.00
2019-02-02T02:18:29.736Z,97.24
2019-02-02T02:23:34.136Z,96.95
2019-02-02T02:28:38.532Z,97.48
2019-02-02T02:33:42.878Z,97.18
2019-02-02T02:38:47.211Z,97.31
2019-02-02T02:43:51.563Z,97.09
2019-02-02T02:48:56.030Z,97.21
2019-02-02T02:54:00.418Z,96.56
2019-02-02T02:59:05.097Z,96.94
2019-02-02T03:04:09.421Z,96.23
2019-02-02T03:09:13.774Z,96.61
2019-02-02T03:14:18.137Z,96.21
2019-02-02T03:19:22.630Z,95.48
2019-02-02T03:24:27.975Z,95.65
2019-02-02T03:29:32.336Z,96.25
2019-02-02T03:34:36.690Z,96.24
2019-02-02T03:39:41.066Z,95.92
2019-02-02T03:44:45.451Z,96.62
2019-02-02T03:49:49.965Z,96.15
2019-02-02T03:54:54.341Z,96.72
2019-02-02T03:59:58.788Z,95.89
2019-02-02T04:05:03.350Z,95.65
2019-02-02T04:10:10.402Z,95.67
2019-02-02T04:15:16.688Z,95.43
2019-02-02T04:20:22.706Z,95.85
2019-02-02T04:25:27.078Z,96.48
2019-02-02T04:30:31.509Z,95.83
2019-02-02T04:35:35.862Z,96.31
2019-02-02T04:40:40.335Z,96.09
2019-02-02T04:45:44.799Z,96.15
2019-02-02T04:50:49.170Z,96.47
2019-02-02T04:55:53.587Z,97.37
2019-02-02T05:00:58.007Z,95.65
2019-02-02T05:06:02.445Z,95.50
2019-02-02T05:11:06.850Z,95.91
2019-02-02T05:16:11.237Z,95.60
2019-02-02T05:21:15.623Z,95.52
2019-02-02T05:26:19.998Z,95.31
2019-02-02T05:31:24.386Z,95.20
2019-02-02T05:36:28.759Z,95.45
2019-02-02T05:41:33.139Z,95.65
2019-02-02T05:46:37.534Z,95.47
2019-02-02T05:51:43.058Z,95.14
2019-02-02T05:56:47.439Z,96.03
2019-02-02T06:01:51.819Z,95.84
2019-02-02T06:06:56.194Z,95.24
2019-02-02T06:12:01.714Z,96.08
2019-02-02T06:17:06.215Z,95.63
2019-02-02T06:22:10.635Z,96.07
2019-02-02T06:27:15.007Z,97.46
2019-02-02T06:32:19.618Z,96.47
2019-02-02T06:37:24.022Z,95.58
2019-02-02T06:42:28.423Z,95.00
2019-02-02T06:47:32.828Z,94.95
2019-02-02T06:52:37.197Z,94.86
2019-02-02T06:57:41.723Z,94.17
2019-02-02T07:02:46.249Z,94.97
2019-02-02T07:07:50.690Z,94.93
2019-02-02T07:12:56.023Z,95.00
2019-02-02T07:18:00.499Z,94.00
2019-02-02T07:23:05.029Z,93.65
2019-02-02T07:28:09.426Z,93.72
2019-02-02T07:33:13.768Z,94.37
2019-02-02T07:38:18.119Z,93.40
2019-02-02T07:43:22.496Z,94.06
2019-02-02T07:48:26.871Z,93.81
2019-02-02T07:53:31.248Z,94.53
2019-02-02T07:58:35.761Z,93.85
2019-02-02T08:03:40.109Z,94.25
2019-02-02T08:08:44.498Z,94.27
2019-02-02T08:13:48.866Z,93.22
2019-02-02T08:18:53.217Z,93.61
2019-02-02T08:23:57.666Z,94.17
2019-02-02T08:29:02.017Z,93.23
2019-02-02T08:34:06.505Z,94.51
2019-02-02T08:39:11.357Z,93.17
2019-02-02T08:44:15.771Z,93.24
2019-02-02T08:49:20.141Z,94.53
2019-02-02T08:54:24.728Z,92.40
2019-02-02T08:59:29.222Z,92.97
2019-02-02T09:04:33.724Z,92.83
2019-02-02T09:09:38.228Z,93.62
2019-02-02T09:14:42.582Z,93.59
2019-02-02T09:19:46.994Z,93.65
2019-02-02T09:24:51.988Z,92.99
2019-02-02T09:29:56.398Z,94.01
2019-02-02T09:35:00.811Z,94.51
2019-02-02T09:40:11.573Z,93.88
2019-02-02T09:45:18.460Z,93.31
2019-02-02T09:50:25.281Z,93.58
2019-02-02T09:55:29.638Z,92.62
2019-02-02T10:00:34.177Z,92.64
2019-02-02T10:05:38.590Z,92.38
2019-02-02T10:10:42.958Z,92.80
2019-02-02T10:15:47.341Z,92.90
2019-02-02T10:21:03.283Z,92.08
2019-02-02T10:25:57.764Z,92.29
2019-02-02T10:31:02.181Z,92.27
2019-02-02T10:36:06.534Z,90.56
2019-02-02T10:41:11.898Z,91.42
2019-02-02T10:46:16.287Z,92.33
2019-02-02T10:51:20.644Z,92.76
2019-02-02T10:56:25.035Z,92.88
2019-02-02T11:01:29.391Z,92.59
2019-02-02T11:06:33.934Z,92.81
2019-02-02T11:11:38.393Z,92.90
2019-02-02T11:16:43.389Z,90.71
2019-02-02T11:21:47.824Z,92.91
2019-02-02T11:26:52.192Z,93.23
2019-02-02T11:32:02.899Z,93.27
2019-02-02T11:37:02.611Z,94.26
2019-02-02T11:42:06.958Z,94.19
2019-02-02T11:47:11.339Z,94.02
2019-02-02T11:52:15.732Z,94.02
2019-02-02T11:57:20.113Z,94.50
2019-02-02T12:02:24.474Z,94.14
2019-02-02T12:07:28.852Z,95.20
2019-02-02T12:12:33.372Z,96.58
2019-02-02T12:17:37.832Z,94.99
2019-02-02T12:22:42.171Z,97.32
2019-02-02T12:27:46.783Z,96.66
2019-02-02T12:32:51.240Z,96.08
2019-02-02T12:37:55.920Z,96.94
2019-02-02T12:43:00.395Z,97.40
2019-02-02T12:48:06.284Z,97.26
2019-02-02T12:53:10.692Z,96.88
2019-02-02T12:58:15.054Z,95.93
2019-02-02T13:03:19.422Z,96.18
2019-02-02T13:08:23.847Z,95.55
2019-02-02T13:13:28.210Z,95.84
2019-02-02T13:18:32.650Z,96.68
2019-02-02T13:23:37.049Z,96.83
2019-02-02T13:28:41.416Z,97.40
2019-02-02T13:33:45.771Z,96.03
2019-02-02T13:38:51.094Z,96.55
2019-02-02T13:43:55.544Z,97.38
2019-02-02T13:48:59.890Z,96.39
2019-02-02T13:54:04.330Z,96.43
2019-02-02T13:59:08.672Z,97.04
2019-02-02T14:04:13.008Z,96.71
2019-02-02T14:09:17.353Z,97.06
2019-02-02T14:14:21.736Z,96.02
2019-02-02T14:19:26.111Z,96.08
2019-02-02T14:24:30.490Z,96.67
2019-02-02T14:29:34.799Z,96.46
2019-02-02T14:34:40.527Z,96.45
2019-02-02T14:39:45.050Z,97.08
2019-02-02T14:44:49.429Z,97.11
2019-02-02T14:49:53.837Z,97.35
2019-02-02T14:54:58.234Z,97.87
2019-02-02T15:00:02.611Z,97.41
2019-02-02T15:05:10.372Z,97.76
2019-02-02T15:10:15.442Z,97.72
2019-02-02T15:15:19.936Z,97.28
2019-02-02T15:20:29.978Z,97.92
2019-02-02T15:25:34.360Z,97.95
2019-02-02T15:30:38.755Z,98.01
2019-02-02T15:35:43.149Z,97.74
2019-02-02T15:40:58.444Z,97.37
2019-02-02T15:45:53.622Z,97.21
2019-02-02T15:50:58.009Z,97.59
2019-02-02T15:56:02.428Z,97.81
2019-02-02T16:01:06.847Z,97.55
2019-02-02T16:06:11.210Z,97.98
2019-02-02T16:11:15.583Z,97.89
2019-02-02T16:16:19.944Z,98.06
2019-02-02T16:21:24.333Z,98.60
2019-02-02T16:26:28.714Z,98.09
2019-02-02T16:31:33.127Z,97.05
2019-02-02T16:36:37.521Z,97.75
2019-02-02T16:41:41.904Z,97.84
2019-02-02T16:46:46.296Z,98.09
2019-02-02T16:51:50.643Z,97.97
2019-02-02T16:56:55.026Z,98.40
2019-02-02T17:01:59.385Z,97.84
2019-02-02T17:07:03.758Z,98.08
2019-02-02T17:12:08.180Z,98.42
2019-02-02T17:17:13.502Z,97.74
2019-02-02T17:22:17.857Z,98.42
2019-02-02T17:27:22.225Z,98.43
2019-02-02T17:32:26.582Z,98.31
2019-02-02T17:37:31.041Z,98.12
2019-02-02T17:42:35.490Z,98.25
2019-02-02T17:47:39.898Z,98.59
2019-02-02T17:52:44.223Z,98.61
2019-02-02T17:57:48.598Z,98.52
2019-02-02T18:02:53.051Z,97.30
2019-02-02T18:07:57.430Z,97.75
2019-02-02T18:13:01.800Z,97.04
2019-02-02T18:18:06.355Z,97.02
2019-02-02T18:23:10.703Z,97.38
2019-02-02T18:28:15.077Z,97.61
2019-02-02T18:33:19.435Z,96.12
2019-02-02T18:38:24.864Z,97.74
2019-02-02T18:43:29.208Z,98.19
2019-02-02T18:48:33.753Z,98.51
2019-02-02T18:53:38.172Z,98.09
2019-02-02T18:58:42.579Z,96.97
2019-02-02T19:03:46.948Z,98.29
2019-02-02T19:08:51.300Z,97.96
2019-02-02T19:13:55.649Z,97.92
2019-02-02T19:19:00.036Z,98.13
2019-02-02T19:24:04.653Z,98.00
2019-02-02T19:29:09.117Z,98.44
2019-02-02T19:34:13.508Z,98.49
2019-02-02T19:39:17.893Z,97.02
2019-02-02T19:44:22.320Z,97.67
2019-02-02T19:49:26.694Z,97.99
2019-02-02T19:54:31.053Z,96.41
2019-02-02T19:59:35.399Z,95.22
2019-02-02T20:04:39.758Z,95.07
2019-02-02T20:09:44.119Z,96.48
2019-02-02T20:14:49.120Z,95.74
2019-02-02T20:19:53.479Z,95.77
2019-02-02T20:24:57.928Z,94.93
2019-02-02T20:30:02.306Z,94.89
2019-02-02T20:35:09.782Z,94.86
2019-02-02T20:40:22.418Z,94.07
2019-02-02T20:45:32.425Z,94.09
2019-02-02T20:50:36.819Z,95.02
2019-02-02T20:55:43.546Z,94.80
2019-02-02T21:00:48.881Z,94.31
2019-02-02T21:05:54.051Z,94.39
2019-02-02T21:10:58.420Z,94.46
2019-02-02T21:16:02.962Z,94.39
2019-02-02T21:21:07.398Z,94.72
2019-02-02T21:26:11.881Z,94.57
2019-02-02T21:31:16.244Z,93.88
2019-02-02T21:36:20.648Z,94.12
2019-02-02T21:41:25.129Z,93.62
2019-02-02T21:46:30.482Z,94.10
2019-02-02T21:51:35.224Z,93.24
2019-02-02T21:56:39.612Z,92.20
2019-02-02T22:01:44.076Z,93.82
2019-02-02T22:06:48.640Z,92.30
2019-02-02T22:11:53.014Z,92.39
2019-02-02T22:17:04.571Z,91.88
2019-02-02T22:22:08.877Z,91.05
2019-02-02T22:27:13.905Z,92.08
2019-02-02T22:32:18.389Z,91.13
2019-02-02T22:37:22.823Z,91.72
2019-02-02T22:42:27.192Z,91.33
2019-02-02T22:47:31.617Z,91.36
2019-02-02T22:52:36.357Z,91.08
2019-02-02T22:57:41.526Z,90.93
2019-02-02T23:02:45.899Z,91.77
2019-02-02T23:07:53.777Z,92.40
2019-02-02T23:13:04.027Z,91.25
2019-02-02T23:18:08.395Z,91.21
2019-02-02T23:23:12.833Z,91.88
2019-02-02T23:28:17.490Z,91.72
2019-02-02T23:33:21.832Z,91.57
2019-02-02T23:38:26.257Z,92.09
2019-02-02T23:43:30.625Z,92.37
2019-02-02T23:48:34.993Z,91.98
2019-02-02T23:53:39.344Z,92.74
2019-02-02T23:58:43.685Z,91.82
